Time;durP1;ratioP1;P1;durP2;ratioP2;P2;SDS_P1;SDS_P2;PMS_P1;PMS_P2;Temp;Humidity;BMP_temperature;BMP_pressure;BME280_temperature;BME280_humidity;BME280_pressure;Samples;Min_cycle;Max_cycle;Signal;HPM_P1;HPM_P2
2021/10/15 00:02:22;;;;;;;4.03;2.75;;;;;;;7.48;100.00;98731.34;5042759;28;20123;-50
2021/10/15 00:04:48;;;;;;;4.65;2.85;;;;;;;7.37;100.00;98725.75;5033550;28;20080;-50
2021/10/15 00:07:14;;;;;;;3.70;2.72;;;;;;;7.52;100.00;98728.59;5056613;28;20124;-49
2021/10/15 00:09:39;;;;;;;3.83;2.25;;;;;;;7.51;100.00;98759.69;5029662;28;20048;-50
2021/10/15 00:12:05;;;;;;;1.40;1.08;;;;;;;7.25;100.00;98734.78;5028623;28;20061;-51
2021/10/15 00:14:31;;;;;;;2.20;1.70;;;;;;;7.14;100.00;98748.06;5020339;28;20038;-52
2021/10/15 00:16:57;;;;;;;4.85;2.28;;;;;;;7.08;100.00;98743.13;5029492;28;20127;-48
2021/10/15 00:19:22;;;;;;;3.40;2.40;;;;;;;7.16;100.00;98748.03;5042743;28;20041;-50
2021/10/15 00:21:48;;;;;;;3.78;2.28;;;;;;;7.07;100.00;98748.34;5049158;28;20095;-49
2021/10/15 00:24:14;;;;;;;6.22;2.58;;;;;;;6.97;100.00;98736.63;5035589;28;20041;-50
2021/10/15 00:26:39;;;;;;;3.58;2.40;;;;;;;7.03;100.00;98757.09;5033338;28;20056;-49
2021/10/15 00:29:09;;;;;;;5.82;2.30;;;;;;;6.94;100.00;98760.84;5044188;28;20571;-52
2021/10/15 00:31:35;;;;;;;3.17;2.13;;;;;;;6.86;100.00;98762.00;5038456;28;20041;-52
2021/10/15 00:34:01;;;;;;;4.25;2.40;;;;;;;6.82;100.00;98772.44;5042036;28;20175;-52
2021/10/15 00:36:26;;;;;;;2.40;1.85;;;;;;;6.64;100.00;98756.72;5038884;28;20568;-51
2021/10/15 00:38:52;;;;;;;1.67;1.13;;;;;;;6.65;100.00;98771.31;5048053;28;20420;-49
2021/10/15 00:41:18;;;;;;;2.53;2.10;;;;;;;6.64;100.00;98772.22;5043801;28;20038;-50
2021/10/15 00:44:04;;;;;;;2.92;2.00;;;;;;;6.65;100.00;98781.63;5033872;28;20048;-51
2021/10/15 00:46:30;;;;;;;2.17;1.48;;;;;;;6.52;100.00;98768.31;5044995;28;20057;-51
2021/10/15 00:48:56;;;;;;;3.58;2.20;;;;;;;6.52;100.00;98770.03;5034885;28;20077;-51
2021/10/15 00:51:23;;;;;;;2.38;1.80;;;;;;;6.53;100.00;98790.66;5051241;28;20084;-47
2021/10/15 00:53:49;;;;;;;4.38;2.40;;;;;;;6.57;100.00;98791.41;5036695;28;20107;-55
2021/10/15 00:56:15;;;;;;;6.22;2.80;;;;;;;6.63;100.00;98791.19;5045617;28;20472;-53
2021/10/15 00:58:41;;;;;;;2.83;1.77;;;;;;;6.72;100.00;98790.88;5052646;28;20033;-51
2021/10/15 01:01:08;;;;;;;2.55;1.90;;;;;;;6.61;100.00;98796.41;5043833;28;20146;-51
2021/10/15 01:03:35;;;;;;;2.88;2.05;;;;;;;6.49;100.00;98801.94;5050743;28;20129;-48
2021/10/15 01:06:03;;;;;;;5.53;1.63;;;;;;;6.45;100.00;98796.94;5051361;28;20041;-49
2021/10/15 01:08:29;;;;;;;2.53;1.67;;;;;;;6.42;100.00;98805.66;5041545;28;20037;-48
2021/10/15 01:10:55;;;;;;;2.97;1.67;;;;;;;6.33;100.00;98809.34;5043988;28;20587;-49
2021/10/15 01:13:21;;;;;;;1.20;0.80;;;;;;;6.18;100.00;98817.56;5042427;28;20033;-50
2021/10/15 01:15:47;;;;;;;6.05;2.30;;;;;;;6.15;100.00;98817.66;5031291;28;20091;-50
2021/10/15 01:18:14;;;;;;;2.95;1.90;;;;;;;6.19;100.00;98824.41;5044311;28;20563;-50
2021/10/15 01:20:42;;;;;;;1.25;0.80;;;;;;;6.16;100.00;98831.41;4999897;28;20033;-50
2021/10/15 01:23:08;;;;;;;2.88;1.90;;;;;;;6.11;100.00;98839.28;5052181;28;20055;-48
2021/10/15 01:25:35;;;;;;;1.00;0.82;;;;;;;6.00;100.00;98836.19;5052372;28;20041;-49
2021/10/15 01:28:03;;;;;;;1.75;1.20;;;;;;;5.91;100.00;98842.44;5052432;28;20116;-53
2021/10/15 01:30:29;;;;;;;2.08;1.38;;;;;;;5.89;100.00;98835.66;5051253;28;20466;-50
2021/10/15 01:32:55;;;;;;;5.00;2.05;;;;;;;5.80;100.00;98834.16;5051688;28;20156;-48
2021/10/15 01:35:20;;;;;;;4.78;1.98;;;;;;;5.92;100.00;98851.88;5047210;28;20768;-54
2021/10/15 01:37:46;;;;;;;2.60;1.70;;;;;;;5.91;100.00;98849.38;5030952;28;20045;-52
2021/10/15 01:40:13;;;;;;;2.22;1.08;;;;;;;5.95;100.00;98861.28;5030740;28;20123;-53
2021/10/15 01:42:54;;;;;;;2.25;1.42;;;;;;;5.90;100.00;98856.25;5035287;28;20579;-48
2021/10/15 01:45:28;;;;;;;2.20;1.17;;;;;;;5.81;100.00;98861.63;5015242;28;20513;-48
2021/10/15 01:47:54;;;;;;;2.15;1.45;;;;;;;5.77;100.00;98866.91;5041894;28;20032;-49
2021/10/15 01:50:22;;;;;;;1.60;1.30;;;;;;;5.68;100.00;98865.44;5051422;28;20068;-49
2021/10/15 01:52:49;;;;;;;3.08;1.60;;;;;;;5.61;100.00;98874.22;5033109;28;20041;-48
2021/10/15 01:55:15;;;;;;;2.95;1.90;;;;;;;5.70;100.00;98884.31;5032831;28;20037;-47
2021/10/15 01:57:41;;;;;;;3.03;1.55;;;;;;;5.65;100.00;98878.44;5033031;28;20071;-48
2021/10/15 02:00:12;;;;;;;1.83;1.30;;;;;;;5.66;100.00;98877.53;5037452;28;20048;-47
2021/10/15 02:02:38;;;;;;;3.03;1.65;;;;;;;5.55;100.00;98877.81;5028570;28;20402;-51
2021/10/15 02:05:06;;;;;;;1.80;1.25;;;;;;;5.48;100.00;98898.66;5014894;28;20590;-49
2021/10/15 02:07:32;;;;;;;2.83;1.30;;;;;;;5.54;100.00;98888.19;5030569;28;20050;-50
2021/10/15 02:09:58;;;;;;;2.95;1.75;;;;;;;5.52;100.00;98898.53;5038250;28;20147;-48
2021/10/15 02:12:23;;;;;;;2.55;1.70;;;;;;;5.43;100.00;98888.47;5049371;28;20132;-49
2021/10/15 02:14:49;;;;;;;3.08;1.85;;;;;;;5.55;100.00;98884.69;5046449;28;20033;-48
2021/10/15 02:17:15;;;;;;;3.15;2.10;;;;;;;5.66;100.00;98905.88;5032626;28;20179;-48
2021/10/15 02:19:41;;;;;;;2.28;1.60;;;;;;;5.59;100.00;98904.38;5031569;28;20350;-48
2021/10/15 02:22:08;;;;;;;3.53;2.10;;;;;;;5.60;100.00;98903.47;5038563;28;20089;-52
2021/10/15 02:24:35;;;;;;;3.72;2.20;;;;;;;5.80;100.00;98908.09;5049009;28;20501;-48
2021/10/15 02:27:01;;;;;;;3.28;1.80;;;;;;;5.72;100.00;98907.44;5049771;28;20063;-49
2021/10/15 02:29:26;;;;;;;3.90;2.33;;;;;;;5.51;100.00;98889.09;5047241;28;20049;-50
2021/10/15 02:31:52;;;;;;;3.95;2.10;;;;;;;5.73;100.00;98925.47;5042398;28;20041;-51
2021/10/15 02:34:18;;;;;;;3.10;1.98;;;;;;;5.71;100.00;98911.75;5032143;28;20033;-52
2021/10/15 02:36:44;;;;;;;3.47;1.65;;;;;;;5.72;100.00;98925.50;5031164;28;20069;-50
2021/10/15 02:39:10;;;;;;;3.75;1.92;;;;;;;5.64;100.00;98935.19;5031290;28;20045;-49
2021/10/15 02:41:37;;;;;;;3.13;2.03;;;;;;;5.47;100.00;98920.16;5030086;28;20053;-48
2021/10/15 02:44:08;;;;;;;2.88;1.85;;;;;;;5.58;100.00;98940.50;5038893;28;20084;-49
2021/10/15 02:46:34;;;;;;;4.75;2.78;;;;;;;5.63;100.00;98941.22;5035749;28;20037;-50
2021/10/15 02:49:00;;;;;;;3.97;2.50;;;;;;;5.58;100.00;98936.19;5028130;28;20508;-51
2021/10/15 02:51:26;;;;;;;6.20;2.97;;;;;;;5.69;100.00;98946.22;5013770;28;20053;-51
2021/10/15 02:53:52;;;;;;;3.80;2.38;;;;;;;5.59;100.00;98948.22;5030790;28;20037;-48
2021/10/15 02:56:18;;;;;;;3.15;2.13;;;;;;;5.61;100.00;98948.16;5031819;28;20073;-47
2021/10/15 02:58:44;;;;;;;4.70;3.05;;;;;;;5.55;100.00;98960.31;5031513;28;20041;-48
2021/10/15 03:01:09;;;;;;;3.05;2.25;;;;;;;5.49;100.00;98960.50;5041815;28;20033;-49
2021/10/15 03:03:35;;;;;;;4.65;2.85;;;;;;;5.45;100.00;98958.00;5045987;28;20539;-53
2021/10/15 03:06:01;;;;;;;5.00;3.08;;;;;;;5.43;100.00;98962.38;5010822;28;20100;-49
2021/10/15 03:08:27;;;;;;;6.45;4.28;;;;;;;5.43;100.00;98972.69;5010808;28;20540;-53
2021/10/15 03:10:52;;;;;;;4.82;3.20;;;;;;;5.44;100.00;98964.88;5009651;28;20065;-59
2021/10/15 03:13:18;;;;;;;6.55;3.60;;;;;;;5.51;100.00;98981.06;5031009;28;20390;-57
2021/10/15 03:15:44;;;;;;;5.47;3.65;;;;;;;5.39;100.00;98947.88;5034331;28;20044;-60
2021/10/15 03:18:12;;;;;;;7.47;4.18;;;;;;;5.69;100.00;98979.75;5036167;28;20454;-59
2021/10/15 03:20:37;;;;;;;5.55;3.17;;;;;;;5.65;100.00;98984.16;5030201;28;20071;-59
2021/10/15 03:23:04;;;;;;;6.60;3.55;;;;;;;5.60;100.00;98982.56;5013417;28;20048;-59
2021/10/15 03:25:30;;;;;;;5.22;3.08;;;;;;;5.59;100.00;98989.47;5030276;28;20131;-59
2021/10/15 03:27:55;;;;;;;6.57;3.85;;;;;;;5.73;100.00;98999.41;5030395;28;20128;-59
2021/10/15 03:30:22;;;;;;;7.05;3.70;;;;;;;5.57;100.00;98993.78;5030217;28;20025;-59
2021/10/15 03:32:48;;;;;;;6.05;3.95;;;;;;;5.54;100.00;99002.47;5029630;28;20474;-60
2021/10/15 03:35:14;;;;;;;13.13;4.65;;;;;;;5.56;100.00;99002.41;5032785;28;20043;-57
2021/10/15 03:37:40;;;;;;;7.93;4.60;;;;;;;5.66;100.00;98997.88;5048284;28;20083;-57
2021/10/15 03:40:07;;;;;;;5.10;3.15;;;;;;;5.50;100.00;98982.78;5048285;28;20051;-58
2021/10/15 03:42:33;;;;;;;5.38;3.75;;;;;;;5.63;100.00;99011.69;5049950;28;20037;-59
2021/10/15 03:44:58;;;;;;;6.68;4.13;;;;;;;5.67;100.00;99021.03;5030155;28;20844;-58
2021/10/15 03:47:24;;;;;;;6.88;3.90;;;;;;;5.68;100.00;99004.69;5040912;28;20041;-58
2021/10/15 03:49:50;;;;;;;8.73;2.45;;;;;;;5.62;100.00;99030.63;5038647;28;20543;-55
2021/10/15 03:52:15;;;;;;;9.15;4.90;;;;;;;5.60;100.00;99028.97;5049613;28;20084;-60
2021/10/15 03:54:41;;;;;;;7.95;3.72;;;;;;;5.60;100.00;99028.97;5047183;28;20137;-56
2021/10/15 03:57:07;;;;;;;6.15;3.28;;;;;;;5.52;100.00;99030.00;5031251;28;20045;-58
2021/10/15 03:59:33;;;;;;;6.68;3.75;;;;;;;5.51;100.00;99043.78;5034166;28;20040;-59
2021/10/15 04:01:59;;;;;;;8.63;5.03;;;;;;;5.59;100.00;99042.75;5048942;28;20119;-58
2021/10/15 04:04:25;;;;;;;10.55;4.28;;;;;;;5.54;100.00;99048.88;5031255;28;20044;-58
2021/10/15 04:06:51;;;;;;;5.60;3.08;;;;;;;5.48;100.00;99054.19;5039272;28;20786;-58
2021/10/15 04:09:17;;;;;;;6.22;3.53;;;;;;;5.38;100.00;99047.53;5043440;28;20053;-58
2021/10/15 04:11:42;;;;;;;5.05;3.40;;;;;;;5.37;100.00;99052.72;5035779;28;20045;-58
2021/10/15 04:14:08;;;;;;;8.18;4.95;;;;;;;5.38;100.00;99057.84;5029623;28;20519;-58
2021/10/15 04:16:34;;;;;;;10.02;5.40;;;;;;;5.43;100.00;99058.59;5029272;28;20045;-59
2021/10/15 04:19:00;;;;;;;7.68;5.03;;;;;;;5.42;100.00;99059.47;5042058;28;20048;-60
2021/10/15 04:21:26;;;;;;;6.63;3.47;;;;;;;5.46;100.00;99070.53;5029665;28;20139;-59
2021/10/15 04:23:52;;;;;;;7.25;4.68;;;;;;;5.41;100.00;99069.81;5044890;28;20055;-59
2021/10/15 04:26:18;;;;;;;6.47;4.10;;;;;;;5.44;100.00;99070.56;5049028;28;20037;-59
2021/10/15 04:28:44;;;;;;;11.00;5.15;;;;;;;5.43;100.00;99071.47;5049866;28;20091;-64
2021/10/15 04:31:10;;;;;;;8.18;3.20;;;;;;;5.41;100.00;99080.13;5038259;28;20409;-59
2021/10/15 04:33:36;;;;;;;8.32;4.82;;;;;;;5.31;100.00;99052.88;5030549;28;20116;-60
2021/10/15 04:36:02;;;;;;;8.13;4.97;;;;;;;5.45;100.00;99086.88;5034018;28;20041;-60
2021/10/15 04:38:27;;;;;;;5.13;3.78;;;;;;;5.41;100.00;99083.53;5024664;28;20094;-52
2021/10/15 04:40:53;;;;;;;9.93;4.43;;;;;;;5.39;100.00;99089.63;5038487;28;20064;-49
2021/10/15 04:43:19;;;;;;;8.45;5.22;;;;;;;5.29;100.00;99064.94;5049470;28;20045;-52
2021/10/15 04:45:45;;;;;;;7.60;4.40;;;;;;;5.44;100.00;99103.25;5036992;28;20041;-48
2021/10/15 04:48:10;;;;;;;8.52;4.75;;;;;;;5.47;100.00;99105.75;5029957;28;20080;-54
2021/10/15 04:50:36;;;;;;;5.43;3.60;;;;;;;5.42;100.00;99097.28;5031529;28;20151;-51
2021/10/15 04:53:06;;;;;;;9.32;3.97;;;;;;;5.54;100.00;99113.34;5029273;28;20041;-48
2021/10/15 04:55:32;;;;;;;6.93;4.35;;;;;;;5.54;100.00;99118.50;5028176;28;20143;-49
2021/10/15 04:58:00;;;;;;;6.63;4.00;;;;;;;5.57;100.00;99124.44;5031086;28;20045;-48
2021/10/15 05:00:27;;;;;;;4.65;3.15;;;;;;;5.40;100.00;99115.34;5020973;28;20390;-49
2021/10/15 05:02:53;;;;;;;8.43;4.93;;;;;;;5.53;100.00;99134.84;5027428;28;20056;-50
2021/10/15 05:05:27;;;;;;;8.32;4.72;;;;;;;5.58;100.00;99126.13;5030338;28;20428;-51
2021/10/15 05:07:54;;;;;;;7.20;3.85;;;;;;;5.61;100.00;99137.22;5046755;28;20416;-47
2021/10/15 05:10:21;;;;;;;7.32;3.42;;;;;;;5.51;100.00;99121.13;5046485;28;20045;-49
2021/10/15 05:12:47;;;;;;;5.97;3.83;;;;;;;5.59;100.00;99131.28;5032429;28;20045;-62
2021/10/15 05:15:13;;;;;;;6.63;3.67;;;;;;;5.68;100.00;99131.03;5031032;28;20037;-54
2021/10/15 05:17:39;;;;;;;8.27;4.00;;;;;;;5.79;100.00;99144.53;5033199;28;20041;-45
2021/10/15 05:20:06;;;;;;;6.05;3.55;;;;;;;5.72;100.00;99139.53;5030271;28;20049;-49
2021/10/15 05:22:33;;;;;;;6.97;4.53;;;;;;;5.82;100.00;99147.03;5047898;28;20194;-50
2021/10/15 05:25:00;;;;;;;7.97;4.75;;;;;;;5.90;100.00;99157.22;5032355;28;20068;-47
2021/10/15 05:27:27;;;;;;;5.75;4.10;;;;;;;5.94;100.00;99158.81;5049634;28;20037;-49
2021/10/15 05:29:53;;;;;;;7.45;4.05;;;;;;;5.89;100.00;99148.63;5046952;28;20029;-53
2021/10/15 05:32:20;;;;;;;8.73;4.57;;;;;;;5.99;100.00;99171.63;5050683;28;20048;-42
2021/10/15 05:34:46;;;;;;;4.95;3.25;;;;;;;6.09;100.00;99168.78;5033155;28;20536;-51
2021/10/15 05:37:13;;;;;;;7.43;4.53;;;;;;;6.09;100.00;99168.78;5030534;28;20037;-53
2021/10/15 05:39:39;;;;;;;7.18;4.57;;;;;;;6.24;100.00;99183.03;5038973;28;20084;-48
2021/10/15 05:42:05;;;;;;;7.97;3.60;;;;;;;6.23;100.00;99177.00;5050415;28;20072;-49
2021/10/15 05:44:32;;;;;;;9.98;5.13;;;;;;;6.32;100.00;99178.53;5048184;28;20132;-48
2021/10/15 05:47:00;;;;;;;8.43;5.07;;;;;;;6.33;100.00;99187.97;5046977;28;20132;-48
2021/10/15 05:49:26;;;;;;;9.32;5.13;;;;;;;6.40;100.00;99189.50;5030248;28;20048;-56
2021/10/15 05:52:02;;;;;;;6.63;3.45;;;;;;;6.40;99.49;99197.25;5043393;28;20048;-50
2021/10/15 05:54:32;;;;;;;7.90;5.50;;;;;;;6.36;99.77;99199.06;5034964;28;20045;-49
2021/10/15 05:59:46;;;;;;;6.80;3.90;;;;;;;6.45;98.19;99192.81;5008294;28;20072;-60
2021/10/15 06:02:12;;;;;;;7.63;3.97;;;;;;;6.48;98.03;99199.66;5036476;28;20524;-59
2021/10/15 06:15:30;;;;;;;7.78;4.13;;;;;;;6.54;93.77;99200.31;5021577;28;20132;-60
2021/10/15 06:17:56;;;;;;;6.15;3.85;;;;;;;6.65;92.25;99216.38;5029912;28;20055;-60
2021/10/15 06:20:23;;;;;;;6.18;4.18;;;;;;;6.74;93.19;99225.66;5039634;28;20069;-61
2021/10/15 06:22:49;;;;;;;5.40;3.63;;;;;;;6.79;92.31;99218.63;5032561;28;20106;-60
2021/10/15 06:25:15;;;;;;;6.72;3.50;;;;;;;6.77;91.32;99226.41;5043064;28;20037;-61
2021/10/15 06:27:40;;;;;;;5.13;3.78;;;;;;;6.86;91.66;99230.47;5011071;28;20050;-61
2021/10/15 06:30:06;;;;;;;5.28;2.90;;;;;;;6.80;89.23;99234.06;5039926;28;20045;-61
2021/10/15 06:32:32;;;;;;;7.05;3.22;;;;;;;6.76;89.25;99235.03;5050713;28;20045;-60
2021/10/15 06:34:58;;;;;;;5.50;3.70;;;;;;;6.64;89.12;99222.47;5050439;28;20473;-61
2021/10/15 06:37:24;;;;;;;6.75;3.50;;;;;;;6.81;89.33;99246.09;5051143;28;20512;-61
2021/10/15 06:39:53;;;;;;;5.85;3.45;;;;;;;6.85;88.43;99249.47;5046411;28;20471;-60
2021/10/15 06:42:19;;;;;;;4.60;3.13;;;;;;;6.86;88.80;99245.97;5030903;28;20126;-59
2021/10/15 06:44:45;;;;;;;4.97;3.38;;;;;;;6.88;89.25;99253.69;5027805;28;20505;-61
2021/10/15 06:47:11;;;;;;;6.85;3.03;;;;;;;7.04;88.21;99245.50;5011007;28;20096;-62
2021/10/15 06:49:37;;;;;;;4.68;2.53;;;;;;;6.87;86.46;99246.81;5012609;28;20425;-60
2021/10/15 06:52:03;;;;;;;5.53;3.42;;;;;;;6.95;87.41;99252.66;5048875;28;20512;-61
2021/10/15 06:54:29;;;;;;;5.53;2.55;;;;;;;6.92;86.17;99253.56;5050680;28;20041;-61
2021/10/15 06:56:54;;;;;;;4.53;2.90;;;;;;;6.94;86.19;99250.97;5050791;28;20049;-61
2021/10/15 06:59:20;;;;;;;7.70;3.85;;;;;;;6.87;86.14;99241.66;5050512;28;20072;-61
2021/10/15 07:01:46;;;;;;;4.10;2.50;;;;;;;7.01;85.24;99257.66;5040493;28;20040;-61
2021/10/15 07:04:11;;;;;;;5.30;3.13;;;;;;;7.03;85.36;99259.31;5050064;28;20166;-62
2021/10/15 07:06:37;;;;;;;4.93;2.90;;;;;;;7.14;85.84;99257.28;5050339;28;20067;-61
2021/10/15 07:09:03;;;;;;;5.75;3.25;;;;;;;7.20;84.84;99256.28;5050177;28;20362;-60
2021/10/15 07:11:33;;;;;;;4.22;3.00;;;;;;;7.32;84.21;99266.28;5034300;28;20037;-61
2021/10/15 07:14:00;;;;;;;5.97;3.70;;;;;;;7.35;83.81;99260.16;5029893;28;20044;-61
2021/10/15 07:16:26;;;;;;;8.35;3.65;;;;;;;7.41;83.57;99272.91;5010735;28;20132;-61
2021/10/15 07:18:51;;;;;;;5.03;3.38;;;;;;;7.37;83.29;99271.31;5010246;28;20128;-61
2021/10/15 07:21:17;;;;;;;4.85;2.85;;;;;;;7.38;82.71;99276.44;5033038;28;20408;-61
2021/10/15 07:23:43;;;;;;;5.05;3.22;;;;;;;7.48;82.17;99275.31;5049651;28;20440;-60
2021/10/15 07:26:10;;;;;;;4.63;2.90;;;;;;;7.52;81.02;99269.16;5049771;28;20049;-60
2021/10/15 07:28:36;;;;;;;3.53;2.22;;;;;;;7.74;79.89;99287.50;5045040;28;20118;-61
2021/10/15 07:31:02;;;;;;;6.00;3.15;;;;;;;7.75;79.43;99283.97;5029731;28;20529;-60
2021/10/15 07:33:28;;;;;;;5.50;2.50;;;;;;;8.00;78.02;99290.16;5029702;28;20529;-62
2021/10/15 07:35:55;;;;;;;5.85;2.22;;;;;;;8.04;77.84;99289.16;5028364;28;20052;-64
2021/10/15 07:38:21;;;;;;;3.28;2.08;;;;;;;7.96;77.03;99300.63;5044634;28;20094;-59
2021/10/15 07:40:46;;;;;;;4.20;2.80;;;;;;;7.97;77.65;99295.41;5049656;28;20048;-61
2021/10/15 07:43:12;;;;;;;6.70;2.90;;;;;;;8.19;77.33;99299.94;5049334;28;20044;-61
2021/10/15 07:45:38;;;;;;;7.15;2.35;;;;;;;8.36;75.21;99302.88;5030860;28;20528;-61
2021/10/15 07:48:04;;;;;;;2.85;2.05;;;;;;;8.28;74.05;99299.63;5042058;28;20512;-62
2021/10/15 07:50:29;;;;;;;5.47;2.00;;;;;;;8.19;74.11;99305.09;5049460;28;20106;-61
2021/10/15 07:52:56;;;;;;;6.20;2.53;;;;;;;8.29;74.63;99294.41;5049788;28;20531;-60
2021/10/15 07:55:22;;;;;;;5.40;2.38;;;;;;;8.57;73.11;99320.34;5049480;28;20032;-62
2021/10/15 07:57:47;;;;;;;3.60;2.05;;;;;;;8.48;72.45;99313.69;5037618;28;20398;-60
2021/10/15 08:00:14;;;;;;;2.33;1.48;;;;;;;8.50;71.94;99298.97;5037543;28;20126;-61
2021/10/15 08:02:39;;;;;;;3.92;1.92;;;;;;;8.56;71.65;99302.25;5055537;28;20041;-62
2021/10/15 08:05:06;;;;;;;3.83;1.60;;;;;;;8.96;70.85;99312.97;5049417;28;20041;-61
2021/10/15 08:07:32;;;;;;;5.22;2.45;;;;;;;8.95;70.81;99311.28;5049482;28;20086;-61
2021/10/15 08:09:59;;;;;;;5.95;1.95;;;;;;;9.07;70.16;99321.25;5048295;28;20144;-60
2021/10/15 08:12:25;;;;;;;3.92;2.30;;;;;;;9.44;69.31;99294.88;5040743;28;20175;-61
2021/10/15 08:14:51;;;;;;;3.53;2.15;;;;;;;9.76;67.97;99317.91;5013253;28;20046;-60
2021/10/15 08:17:16;;;;;;;5.15;2.40;;;;;;;10.12;67.50;99327.81;5009719;28;20133;-61
2021/10/15 08:19:43;;;;;;;3.58;2.40;;;;;;;10.66;65.75;99326.59;5009602;28;20046;-61
2021/10/15 08:22:09;;;;;;;5.70;2.13;;;;;;;11.01;63.66;99333.78;5014071;28;20133;-63
2021/10/15 08:24:35;;;;;;;2.45;1.92;;;;;;;10.99;63.35;99326.06;5027743;28;20045;-62
2021/10/15 08:27:02;;;;;;;3.15;2.00;;;;;;;10.83;63.50;99340.63;5027614;28;20254;-62
2021/10/15 08:29:27;;;;;;;4.38;2.05;;;;;;;10.41;64.61;99350.97;5027709;28;20088;-61
2021/10/15 08:31:53;;;;;;;7.35;2.30;;;;;;;10.41;64.39;99338.00;5029003;28;20420;-61
2021/10/15 08:34:20;;;;;;;2.25;1.63;;;;;;;10.61;63.58;99337.19;5047434;28;20120;-62
2021/10/15 08:36:46;;;;;;;5.43;2.35;;;;;;;10.94;64.21;99330.59;5048842;28;20056;-61
2021/10/15 08:39:17;;;;;;;8.02;3.00;;;;;;;11.11;63.11;99331.66;5050957;28;20091;-61
2021/10/15 08:41:43;;;;;;;2.78;2.17;;;;;;;11.32;61.64;99341.16;5052705;28;20128;-61
2021/10/15 08:44:08;;;;;;;3.17;1.80;;;;;;;11.65;60.57;99337.09;5034866;28;20521;-62
2021/10/15 08:46:36;;;;;;;3.08;2.10;;;;;;;12.31;59.52;99340.16;5031531;28;20144;-62
2021/10/15 08:49:02;;;;;;;4.55;2.15;;;;;;;13.43;56.25;99345.09;5032990;28;20033;-60
2021/10/15 08:51:30;;;;;;;3.70;1.95;;;;;;;13.60;54.40;99346.00;5014988;28;20041;-60
2021/10/15 08:54:00;;;;;;;2.53;1.88;;;;;;;13.88;53.96;99344.44;5046455;28;20029;-63
2021/10/15 08:56:30;;;;;;;2.83;1.88;;;;;;;13.56;54.29;99358.34;5052918;28;20041;-63
2021/10/15 08:58:59;;;;;;;6.82;1.70;;;;;;;12.74;55.26;99350.25;5052757;28;20048;-61
2021/10/15 09:01:28;;;;;;;2.83;1.70;;;;;;;12.02;56.88;99364.13;5051516;28;20037;-61
2021/10/15 09:04:18;;;;;;;2.33;1.60;;;;;;;11.17;58.14;99355.66;5038399;28;20299;-62
2021/10/15 09:06:47;;;;;;;3.25;1.30;;;;;;;11.00;59.37;99369.38;5032389;28;20060;-62
2021/10/15 09:09:13;;;;;;;;;;;;;;;10.92;59.98;99394.84;5033075;28;20511;-61
2021/10/15 09:11:42;;;;;;;1.30;1.13;;;;;;;10.43;61.58;99361.28;5031057;28;19917;-61
2021/10/15 09:14:16;;;;;;;4.00;1.83;;;;;;;10.38;62.62;99368.41;5044744;28;20063;-62
2021/10/15 09:17:00;;;;;;;2.40;1.50;;;;;;;10.42;62.17;99362.19;5031508;28;20136;-62
2021/10/15 09:19:33;;;;;;;2.83;1.10;;;;;;;10.42;62.85;99375.19;5032197;28;20532;-61
2021/10/15 09:22:12;;;;;;;3.03;1.65;;;;;;;10.25;63.61;99370.66;5032209;28;20132;-62
2021/10/15 09:24:49;;;;;;;2.73;1.77;;;;;;;10.40;63.25;99370.06;5049165;28;20123;-62
2021/10/15 09:27:24;;;;;;;2.58;1.50;;;;;;;10.58;62.48;99371.09;5050376;28;20040;-61
2021/10/15 09:29:52;;;;;;;2.08;1.35;;;;;;;10.36;63.37;99376.28;5050481;28;20044;-62
2021/10/15 09:32:19;;;;;;;2.58;1.63;;;;;;;10.42;63.64;99367.38;5051596;28;20098;-60
2021/10/15 09:34:47;;;;;;;2.88;1.60;;;;;;;10.73;62.64;99377.47;5031718;28;20406;-62
2021/10/15 09:37:18;;;;;;;2.58;2.13;;;;;;;10.70;62.78;99381.00;5031869;28;20045;-62
2021/10/15 09:39:44;;;;;;;2.70;1.60;;;;;;;10.54;63.08;99372.13;5031565;28;20045;-62
2021/10/15 09:42:27;;;;;;;2.28;1.60;;;;;;;10.39;63.48;99370.13;5031753;28;20037;-61
2021/10/15 09:44:54;;;;;;;4.55;1.30;;;;;;;10.08;64.36;99386.84;5011573;28;20057;-60
2021/10/15 09:47:26;;;;;;;2.90;1.95;;;;;;;9.90;66.07;99376.25;5011982;28;20049;-61
2021/10/15 09:50:03;;;;;;;2.00;1.48;;;;;;;9.76;66.44;99397.53;5011368;28;20061;-62
2021/10/15 09:52:34;;;;;;;3.95;1.48;;;;;;;9.71;66.04;99387.31;5011867;28;20505;-61
2021/10/15 09:55:03;;;;;;;1.70;1.60;;;;;;;9.69;66.97;99393.47;5042893;28;20089;-60
2021/10/15 09:57:31;;;;;;;3.75;1.60;;;;;;;9.71;67.27;99394.25;5051197;28;20041;-60
2021/10/15 09:59:57;;;;;;;2.67;1.60;;;;;;;9.89;66.82;99413.53;5051476;28;20272;-61
2021/10/15 10:02:23;;;;;;;3.33;1.60;;;;;;;9.67;66.62;99393.53;5028195;28;20040;-61
2021/10/15 10:04:51;;;;;;;2.47;1.25;;;;;;;9.85;66.45;99376.44;5026737;28;20037;-63
2021/10/15 10:07:17;;;;;;;9.82;2.42;;;;;;;9.70;66.84;99374.38;5031263;28;20075;-62
2021/10/15 10:09:44;;;;;;;2.13;1.55;;;;;;;9.89;66.36;99385.81;5030160;28;20042;-62
2021/10/15 10:12:12;;;;;;;1.88;1.27;;;;;;;9.96;65.88;99391.63;5031440;28;20041;-62
2021/10/15 10:14:38;;;;;;;5.20;1.10;;;;;;;9.99;65.95;99394.97;5032660;28;20040;-61
2021/10/15 10:17:05;;;;;;;3.35;1.80;;;;;;;9.90;65.94;99402.22;5011718;28;20051;-62
2021/10/15 10:19:36;;;;;;;3.30;1.80;;;;;;;9.89;66.25;99398.78;5011147;28;20046;-63
2021/10/15 10:22:02;;;;;;;3.28;1.45;;;;;;;9.92;66.16;99401.28;5010118;28;20046;-62
2021/10/15 10:24:31;;;;;;;1.20;1.08;;;;;;;10.03;65.60;99413.88;5023772;28;20060;-61
2021/10/15 10:26:58;;;;;;;3.53;1.50;;;;;;;9.88;65.63;99397.13;5032598;28;20041;-63
2021/10/15 10:29:24;;;;;;;1.80;1.27;;;;;;;9.81;66.08;99403.41;5050179;28;20037;-61
2021/10/15 10:31:53;;;;;;;3.03;1.45;;;;;;;9.85;66.29;99410.19;5049115;28;20041;-61
2021/10/15 10:34:24;;;;;;;2.28;1.30;;;;;;;9.96;66.11;99397.66;5044617;28;20136;-62
2021/10/15 10:37:11;;;;;;;1.80;1.27;;;;;;;10.15;64.90;99406.47;5030381;28;20076;-62
2021/10/15 10:39:38;;;;;;;2.30;1.25;;;;;;;10.31;64.05;99401.56;5030439;28;20041;-62
2021/10/15 10:42:05;;;;;;;4.13;1.52;;;;;;;10.42;63.74;99395.97;5030341;28;20064;-61
2021/10/15 10:44:36;;;;;;;1.85;1.42;;;;;;;10.50;63.18;99400.00;5034069;28;20062;-61
2021/10/15 10:47:32;;;;;;;1.65;1.10;;;;;;;10.39;63.66;99409.09;5048666;28;20051;-60
2021/10/15 10:50:05;;;;;;;2.65;1.40;;;;;;;10.83;61.84;99405.63;5045200;28;20052;-61
2021/10/15 10:52:50;;;;;;;2.40;1.30;;;;;;;11.14;60.36;99387.03;5050425;28;20060;-62
2021/10/15 10:55:42;;;;;;;2.05;1.13;;;;;;;11.90;57.95;99386.38;5033601;28;20049;-62
2021/10/15 10:58:30;;;;;;;3.13;1.52;;;;;;;12.48;57.04;99384.56;5030582;28;20132;-60
2021/10/15 11:01:19;;;;;;;2.80;1.60;;;;;;;12.01;57.52;99376.31;5030332;28;20049;-61
2021/10/15 11:03:45;;;;;;;1.38;1.00;;;;;;;11.52;57.29;99390.59;5028093;28;20041;-61
2021/10/15 11:06:11;;;;;;;2.33;1.23;;;;;;;10.96;58.38;99386.00;5046274;28;20040;-62
2021/10/15 11:08:37;;;;;;;3.42;1.48;;;;;;;10.90;58.82;99382.81;5031026;28;20048;-62
2021/10/15 11:11:23;;;;;;;3.00;1.40;;;;;;;10.81;59.33;99386.63;5049475;28;20057;-61
2021/10/15 11:13:49;;;;;;;4.38;1.77;;;;;;;10.72;59.67;99384.41;5048583;28;20028;-61
2021/10/15 11:16:19;;;;;;;2.05;1.20;;;;;;;10.59;60.25;99389.22;5014095;28;20053;-60
2021/10/15 11:18:46;;;;;;;4.32;1.45;;;;;;;10.62;60.33;99393.47;5047697;28;20045;-61
2021/10/15 11:21:12;;;;;;;3.38;1.13;;;;;;;10.63;59.60;99390.81;5049749;28;20538;-61
2021/10/15 11:23:39;;;;;;;1.50;1.20;;;;;;;11.05;58.84;99383.03;5049880;28;20053;-61
2021/10/15 11:26:05;;;;;;;3.17;1.27;;;;;;;11.06;57.53;99391.69;5049720;28;20465;-60
2021/10/15 11:28:31;;;;;;;1.33;0.85;;;;;;;10.85;56.98;99400.34;5032163;28;20168;-61
2021/10/15 11:30:58;;;;;;;1.95;1.38;;;;;;;10.59;57.02;99385.78;5029880;28;20049;-60
2021/10/15 11:33:26;;;;;;;3.88;1.40;;;;;;;10.57;57.71;99388.44;5029692;28;20064;-60
2021/10/15 11:35:53;;;;;;;3.67;1.40;;;;;;;10.52;57.10;99387.75;5029458;28;20049;-62
2021/10/15 11:38:25;;;;;;;1.90;1.30;;;;;;;10.53;57.27;99393.81;5040962;28;20480;-61
2021/10/15 11:40:52;;;;;;;7.65;1.35;;;;;;;10.48;56.59;99395.75;5049012;28;20170;-61
2021/10/15 11:43:22;;;;;;;1.17;0.80;;;;;;;10.15;55.39;99414.25;5048919;28;20033;-61
2021/10/15 11:45:50;;;;;;;3.50;1.50;;;;;;;10.03;54.88;99400.91;5029203;28;20147;-61
2021/10/15 11:48:24;;;;;;;3.95;1.52;;;;;;;9.91;55.77;99399.59;5040156;28;20052;-61
2021/10/15 11:50:54;;;;;;;5.25;2.63;;;;;;;9.93;55.43;99413.38;5031681;28;20127;-61
2021/10/15 11:53:22;;;;;;;2.67;1.20;;;;;;;9.74;54.57;99414.91;5028010;28;20428;-61